This is the latest recevied weather packets stored in our database for station/object EA5AER-5. If no packets are shown the sender has not sent any weather packets the latest 1 day(s).
| Time | Temp. | Humidity | Pressure | Rain* | Wind** | Luminosity | Snow |
|---|---|---|---|---|---|---|---|
| 1836274631 | 23.33° C | 83% | 1018.9 hPa | 0 mm | 0.45 m/s, 242° | 0 W/m² | - |
| 1778053247 | 17.78° C | 71% | 1009.4 hPa | 0 mm | 4.92 m/s, 10° | 39 W/m² | - |
| 1778052034 | 17.78° C | 71% | 1009.4 hPa | 0 mm | 4.92 m/s, 10° | 39 W/m² | - |
| 1778050829 | 17.78° C | 71% | 1009.4 hPa | 0 mm | 4.92 m/s, 10° | 39 W/m² | - |
| 1778049642 | 17.78° C | 71% | 1009.4 hPa | 0 mm | 4.92 m/s, 10° | 39 W/m² | - |
| 1778048459 | 17.78° C | 71% | 1009.4 hPa | 0 mm | 4.92 m/s, 10° | 39 W/m² | - |
| 1778047241 | 17.78° C | 71% | 1009.4 hPa | 0 mm | 4.92 m/s, 10° | 39 W/m² | - |
| 1778046091 | 17.78° C | 71% | 1009.4 hPa | 0 mm | 4.92 m/s, 10° | 39 W/m² | - |
| 1778044908 | 17.78° C | 68% | 1009.2 hPa | 0 mm | 4.47 m/s, 24° | 0 W/m² | - |
| 1778043606 | 17.78° C | 68% | 1009.2 hPa | 0 mm | 4.47 m/s, 24° | 0 W/m² | - |
| 1778042478 | 17.78° C | 70% | 1009 hPa | 0 mm | 3.58 m/s, 12° | 0 W/m² | - |
| 1778041359 | 17.78° C | 71% | 1009 hPa | 0 mm | 4.02 m/s, 11° | 0 W/m² | - |
| 1778040216 | 17.78° C | 73% | 1008.9 hPa | 0 mm | 4.02 m/s, 14° | 0 W/m² | - |
| 1778038974 | 18.33° C | 74% | 1009 hPa | 0 mm | 0.89 m/s, 38° | 0 W/m² | - |
| 1778037709 | 18.33° C | 75% | 1008.9 hPa | 0 mm | 2.24 m/s, 45° | 0 W/m² | - |
| 1778036553 | 18.33° C | 77% | 1008.9 hPa | 0 mm | 1.34 m/s, 59° | 0 W/m² | - |
| 1778035269 | 18.33° C | 77% | 1009 hPa | 0 mm | 2.68 m/s, 50° | 0 W/m² | - |
| 1778033985 | 18.33° C | 77% | 1009 hPa | 0 mm | 2.68 m/s, 50° | 0 W/m² | - |
| 1778032717 | 18.33° C | 80% | 1009 hPa | 0 mm | 3.58 m/s, 47° | 0 W/m² | - |
| 1778031382 | 18.33° C | 80% | 1009 hPa | 0 mm | 3.58 m/s, 47° | 0 W/m² | - |
| 1778030200 | 18.33° C | 83% | 1009 hPa | 0 mm | 5.36 m/s, 26° | 0 W/m² | - |
| 1778028991 | 18.33° C | 83% | 1009 hPa | 0 mm | 5.36 m/s, 26° | 0 W/m² | - |
| 1778027782 | 18.33° C | 83% | 1008.9 hPa | 0 mm | 3.13 m/s, 291° | 0 W/m² | - |
| 1778026584 | 18.33° C | 81% | 1009 hPa | 0 mm | 4.02 m/s, 269° | 0 W/m² | - |
| 1778025406 | 18.33° C | 81% | 1009 hPa | 0 mm | 4.02 m/s, 269° | 0 W/m² | - |
* Rain latest hour (hover to see other rain measurements)
** Current wind speed in m/s (hover to see current wind gust speed)